Anzoras — EAZC — position and weather

sailwx.info

Track history (hours):
 
Tides and Currents Weather Stations Pressure Air Temp Water Temp Dewpoint Dewpoint Depression Visibility Wind Speed Wind Dir Waves Ship Positions

Anzoras

Last reported at 2017-Mar-23 12:33 UTC. Time now 2017-Mar-23 14:22 UTC.
Position N 50°29' W 000°13'.

Length 100 m; draft 6.5 m.

Type: Cargo ship. MMSI: 224376000.

Date/timePositionNaut miles runAvg speedWind from/ knotsBaromVisibWave heightAir tempDewpointWater temp
2017-Mar-23 12:33N 50°29' W 000°13'1212.1
2017-Mar-23 11:33N 50°32' E 000°05'1812.0
2017-Mar-23 10:04N 50°37' E 000°32'711.4
2017-Mar-23 09:26N 50°41' E 000°42'2410.7
2017-Mar-23 07:09N 50°55' E 001°13'610.2
2017-Mar-23 06:31N 50°60' E 001°20'1010.5
2017-Mar-23 05:33N 51°07' E 001°32'1111.2
2017-Mar-23 04:33N 51°14' E 001°45'1211.8
2017-Mar-23 03:33N 51°24' E 001°57'1110.5
2017-Mar-23 02:31N 51°21' E 002°14'1111.2
2017-Mar-23 01:33N 51°23' E 002°31'1110.7
2017-Mar-23 00:33N 51°22' E 002°48'1111.2
2017-Mar-22 23:33N 51°22' E 003°06'1111.3
2017-Mar-22 22:33N 51°25' E 003°23'1110.6
2017-Mar-22 21:32N 51°26' E 003°41'8 8.1
2017-Mar-22 20:32N 51°20' E 003°49'1 0.5
2017-Mar-22 19:33N 51°20' E 003°49'5 5.6
2017-Mar-22 18:34N 51°14' E 003°49'7 6.6
2017-Mar-22 17:33N 51°08' E 003°46'3 2.7
2017-Mar-22 16:33N 51°05' E 003°44'0 0.0
2017-Mar-22 15:34N 51°05' E 003°44'0 0.0
2017-Mar-22 14:33N 51°05' E 003°44'0 0.0
2017-Mar-22 13:34N 51°05' E 003°44'0 0.0
2017-Mar-22 12:33N 51°05' E 003°44'0 0.0
2017-Mar-22 11:33N 51°05' E 003°44'0 0.0
2017-Mar-22 10:32N 51°05' E 003°44'0 0.0
2017-Mar-22 09:33N 51°05' E 003°44'0 0.0
2017-Mar-22 08:32N 51°05' E 003°44'0 0.0
2017-Mar-22 07:33N 51°05' E 003°44'0 0.0
2017-Mar-22 06:33N 51°05' E 003°44'0 0.0
2017-Mar-22 05:33N 51°05' E 003°44'0 0.0
2017-Mar-22 04:34N 51°05' E 003°44'0 0.0
2017-Mar-22 03:33N 51°05' E 003°44'0 0.0
2017-Mar-22 02:32N 51°05' E 003°44'0 0.0
2017-Mar-22 01:33N 51°05' E 003°44'0 0.0
2017-Mar-22 00:33N 51°05' E 003°44'0 0.0
2017-Mar-21 23:33N 51°05' E 003°44'0 0.0
2017-Mar-21 22:33N 51°05' E 003°44'0 0.0
2017-Mar-21 21:33N 51°05' E 003°44'0 0.0
2017-Mar-21 20:33N 51°05' E 003°44'0 0.0
2017-Mar-21 19:33N 51°05' E 003°44'0 0.0
2017-Mar-21 18:33N 51°05' E 003°44'0 0.0
2017-Mar-21 17:33N 51°05' E 003°44'0 0.0
2017-Mar-21 16:33N 51°05' E 003°44'0 0.2
2017-Mar-21 15:30N 51°06' E 003°44'0 0.0
2017-Mar-21 14:33N 51°06' E 003°44'0 0.0
2017-Mar-21 13:32N 51°06' E 003°44'0 0.0
2017-Mar-21 12:31N 51°06' E 003°44'0 0.0
2017-Mar-21 11:31N 51°06' E 003°44'0 0.0
2017-Mar-21 10:31N 51°06' E 003°44'0 0.0
2017-Mar-21 09:31N 51°06' E 003°44'0 0.0
2017-Mar-21 08:31N 51°06' E 003°44'0 0.0
2017-Mar-21 07:31N 51°06' E 003°44'0 0.0
2017-Mar-21 06:25N 51°06' E 003°44'0 0.0
2017-Mar-21 05:31N 51°06' E 003°44'0 0.0
2017-Mar-21 04:32N 51°06' E 003°44'0 0.0
2017-Mar-21 03:31N 51°06' E 003°44'0 0.0
2017-Mar-21 02:32N 51°06' E 003°44'0 0.0
2017-Mar-21 01:31N 51°06' E 003°44'0 0.0
2017-Mar-21 00:32N 51°06' E 003°44'0 0.0
2017-Mar-20 23:25N 51°06' E 003°44'0 0.0
2017-Mar-20 22:25N 51°06' E 003°44'0 0.0
2017-Mar-20 21:31N 51°06' E 003°44'0 0.0
2017-Mar-20 20:31N 51°06' E 003°44'0 0.0
2017-Mar-20 19:31N 51°06' E 003°44'0 0.0
2017-Mar-20 18:31N 51°06' E 003°44'0 0.0
2017-Mar-20 17:31N 51°06' E 003°44'0 0.0
2017-Mar-20 16:31N 51°06' E 003°44'0 0.0
2017-Mar-20 15:31N 51°06' E 003°44'0 0.0
2017-Mar-20 14:31N 51°06' E 003°44'0 0.0
2017-Mar-20 13:31N 51°06' E 003°44'0 0.0
2017-Mar-20 12:32N 51°06' E 003°44'0 0.0
2017-Mar-20 11:31N 51°06' E 003°44'0 0.0
2017-Mar-20 10:25N 51°06' E 003°44'0 0.0
2017-Mar-20 09:31N 51°06' E 003°44'0 0.0
2017-Mar-20 08:32N 51°06' E 003°44'0 0.0
2017-Mar-20 07:22N 51°06' E 003°44'0 0.0
2017-Mar-20 06:31N 51°06' E 003°44'0 0.0
2017-Mar-20 05:32N 51°06' E 003°44'0 0.0
2017-Mar-20 04:31N 51°06' E 003°44'0 0.0
2017-Mar-20 03:31N 51°06' E 003°44'0 0.0
2017-Mar-20 02:31N 51°06' E 003°44'0 0.0
2017-Mar-20 01:31N 51°06' E 003°44'0 0.0
2017-Mar-20 00:31N 51°06' E 003°44'0 0.0
2017-Mar-19 23:29N 51°06' E 003°44'0 0.0
2017-Mar-19 22:31N 51°06' E 003°44'0 0.0
2017-Mar-19 21:31N 51°06' E 003°44'0 0.0
2017-Mar-19 20:32N 51°06' E 003°44'0 0.0
2017-Mar-19 19:28N 51°06' E 003°44'0 0.0
2017-Mar-19 18:32N 51°06' E 003°44'0 0.0
2017-Mar-19 17:31N 51°06' E 003°44'2 2.2
2017-Mar-19 16:33N 51°07' E 003°46'20 5.8
2017-Mar-19 13:09N 51°26' E 003°35'19510.5
2017-Mar-18 18:33N 54°04' E 000°28'1212.3
2017-Mar-18 17:33N 54°12' E 000°12'1211.9
2017-Mar-18 16:33N 54°21' W 000°02'1111.3
2017-Mar-18 15:33N 54°29' W 000°16'12 0.3
2017-Mar-16 23:33N 54°38' W 000°30'1111.2
2017-Mar-16 22:33N 54°31' W 000°15'1110.6
2017-Mar-16 21:33N 54°26' E 000°01'10 9.8
2017-Mar-16 20:33N 54°20' E 000°14'10 9.6
2017-Mar-16 19:33N 54°12' E 000°23'129 9.6
2017-Mar-16 06:08N 52°15' E 001°53'712.6
2017-Mar-16 05:33N 52°07' E 001°52'1313.4
2017-Mar-16 04:33N 51°54' E 001°49'1312.8
2017-Mar-16 03:33N 51°41' E 001°49'1211.9
2017-Mar-16 02:33N 51°30' E 001°54'1111.4
2017-Mar-16 01:33N 51°21' E 002°06'1110.6
2017-Mar-16 00:33N 51°12' E 001°58'1111.5
2017-Mar-15 23:33N 51°06' E 001°43'9 9.4
2017-Mar-15 22:33N 50°59' E 001°32'8 8.3
2017-Mar-15 21:33N 50°52' E 001°25'27 8.8
2017-Mar-15 18:28N 50°31' E 000°59'3210.0
2017-Mar-15 15:13N 50°23' E 000°10'5511.7
2017-Mar-15 10:32N 50°08' W 001°13'1414.3
2017-Mar-15 09:33N 50°04' W 001°34'4213.1
2017-Mar-15 06:21N 49°53' W 002°37'3110.1
2017-Mar-15 03:20N 49°40' W 003°20'19 9.1
2017-Mar-15 01:12N 49°30' W 003°46'  
Track history (hours):
 
Tides and Currents Weather Stations Pressure Air Temp Water Temp Dewpoint Dewpoint Depression Visibility Wind Speed Wind Dir Waves Ship Positions

Anzoras

Last reported at 2017-Mar-23 12:33 UTC. Time now 2017-Mar-23 14:22 UTC.
Position N 50°29' W 000°13'.

Length 100 m; draft 6.5 m.

Type: Cargo ship. MMSI: 224376000.

Date/timePositionNaut miles runAvg speedWind from/ knotsBaromVisibWave heightAir tempDewpointWater temp
2017-Mar-23 12:33N 50°29' W 000°13'1212.1
2017-Mar-23 11:33N 50°32' E 000°05'1812.0
2017-Mar-23 10:04N 50°37' E 000°32'711.4
2017-Mar-23 09:26N 50°41' E 000°42'2410.7
2017-Mar-23 07:09N 50°55' E 001°13'610.2
2017-Mar-23 06:31N 50°60' E 001°20'1010.5
2017-Mar-23 05:33N 51°07' E 001°32'1111.2
2017-Mar-23 04:33N 51°14' E 001°45'1211.8
2017-Mar-23 03:33N 51°24' E 001°57'1110.5
2017-Mar-23 02:31N 51°21' E 002°14'1111.2
2017-Mar-23 01:33N 51°23' E 002°31'1110.7
2017-Mar-23 00:33N 51°22' E 002°48'1111.2
2017-Mar-22 23:33N 51°22' E 003°06'1111.3
2017-Mar-22 22:33N 51°25' E 003°23'1110.6
2017-Mar-22 21:32N 51°26' E 003°41'8 8.1
2017-Mar-22 20:32N 51°20' E 003°49'1 0.5
2017-Mar-22 19:33N 51°20' E 003°49'5 5.6
2017-Mar-22 18:34N 51°14' E 003°49'7 6.6
2017-Mar-22 17:33N 51°08' E 003°46'3 2.7
2017-Mar-22 16:33N 51°05' E 003°44'0 0.0
2017-Mar-22 15:34N 51°05' E 003°44'0 0.0
2017-Mar-22 14:33N 51°05' E 003°44'0 0.0
2017-Mar-22 13:34N 51°05' E 003°44'0 0.0
2017-Mar-22 12:33N 51°05' E 003°44'0 0.0
2017-Mar-22 11:33N 51°05' E 003°44'0 0.0
2017-Mar-22 10:32N 51°05' E 003°44'0 0.0
2017-Mar-22 09:33N 51°05' E 003°44'0 0.0
2017-Mar-22 08:32N 51°05' E 003°44'0 0.0
2017-Mar-22 07:33N 51°05' E 003°44'0 0.0
2017-Mar-22 06:33N 51°05' E 003°44'0 0.0
2017-Mar-22 05:33N 51°05' E 003°44'0 0.0
2017-Mar-22 04:34N 51°05' E 003°44'0 0.0
2017-Mar-22 03:33N 51°05' E 003°44'0 0.0
2017-Mar-22 02:32N 51°05' E 003°44'0 0.0
2017-Mar-22 01:33N 51°05' E 003°44'0 0.0
2017-Mar-22 00:33N 51°05' E 003°44'0 0.0
2017-Mar-21 23:33N 51°05' E 003°44'0 0.0
2017-Mar-21 22:33N 51°05' E 003°44'0 0.0
2017-Mar-21 21:33N 51°05' E 003°44'0 0.0
2017-Mar-21 20:33N 51°05' E 003°44'0 0.0
2017-Mar-21 19:33N 51°05' E 003°44'0 0.0
2017-Mar-21 18:33N 51°05' E 003°44'0 0.0
2017-Mar-21 17:33N 51°05' E 003°44'0 0.0
2017-Mar-21 16:33N 51°05' E 003°44'0 0.2
2017-Mar-21 15:30N 51°06' E 003°44'0 0.0
2017-Mar-21 14:33N 51°06' E 003°44'0 0.0
2017-Mar-21 13:32N 51°06' E 003°44'0 0.0
2017-Mar-21 12:31N 51°06' E 003°44'0 0.0
2017-Mar-21 11:31N 51°06' E 003°44'0 0.0
2017-Mar-21 10:31N 51°06' E 003°44'0 0.0
2017-Mar-21 09:31N 51°06' E 003°44'0 0.0
2017-Mar-21 08:31N 51°06' E 003°44'0 0.0
2017-Mar-21 07:31N 51°06' E 003°44'0 0.0
2017-Mar-21 06:25N 51°06' E 003°44'0 0.0
2017-Mar-21 05:31N 51°06' E 003°44'0 0.0
2017-Mar-21 04:32N 51°06' E 003°44'0 0.0
2017-Mar-21 03:31N 51°06' E 003°44'0 0.0
2017-Mar-21 02:32N 51°06' E 003°44'0 0.0
2017-Mar-21 01:31N 51°06' E 003°44'0 0.0
2017-Mar-21 00:32N 51°06' E 003°44'0 0.0
2017-Mar-20 23:25N 51°06' E 003°44'0 0.0
2017-Mar-20 22:25N 51°06' E 003°44'0 0.0
2017-Mar-20 21:31N 51°06' E 003°44'0 0.0
2017-Mar-20 20:31N 51°06' E 003°44'0 0.0
2017-Mar-20 19:31N 51°06' E 003°44'0 0.0
2017-Mar-20 18:31N 51°06' E 003°44'0 0.0
2017-Mar-20 17:31N 51°06' E 003°44'0 0.0
2017-Mar-20 16:31N 51°06' E 003°44'0 0.0
2017-Mar-20 15:31N 51°06' E 003°44'0 0.0
2017-Mar-20 14:31N 51°06' E 003°44'0 0.0
2017-Mar-20 13:31N 51°06' E 003°44'0 0.0
2017-Mar-20 12:32N 51°06' E 003°44'0 0.0
2017-Mar-20 11:31N 51°06' E 003°44'0 0.0
2017-Mar-20 10:25N 51°06' E 003°44'0 0.0
2017-Mar-20 09:31N 51°06' E 003°44'0 0.0
2017-Mar-20 08:32N 51°06' E 003°44'0 0.0
2017-Mar-20 07:22N 51°06' E 003°44'0 0.0
2017-Mar-20 06:31N 51°06' E 003°44'0 0.0
2017-Mar-20 05:32N 51°06' E 003°44'0 0.0
2017-Mar-20 04:31N 51°06' E 003°44'0 0.0
2017-Mar-20 03:31N 51°06' E 003°44'0 0.0
2017-Mar-20 02:31N 51°06' E 003°44'0 0.0
2017-Mar-20 01:31N 51°06' E 003°44'0 0.0
2017-Mar-20 00:31N 51°06' E 003°44'0 0.0
2017-Mar-19 23:29N 51°06' E 003°44'0 0.0
2017-Mar-19 22:31N 51°06' E 003°44'0 0.0
2017-Mar-19 21:31N 51°06' E 003°44'0 0.0
2017-Mar-19 20:32N 51°06' E 003°44'0 0.0
2017-Mar-19 19:28N 51°06' E 003°44'0 0.0
2017-Mar-19 18:32N 51°06' E 003°44'0 0.0
2017-Mar-19 17:31N 51°06' E 003°44'2 2.2
2017-Mar-19 16:33N 51°07' E 003°46'20 5.8
2017-Mar-19 13:09N 51°26' E 003°35'19510.5
2017-Mar-18 18:33N 54°04' E 000°28'1212.3
2017-Mar-18 17:33N 54°12' E 000°12'1211.9
2017-Mar-18 16:33N 54°21' W 000°02'1111.3
2017-Mar-18 15:33N 54°29' W 000°16'12 0.3
2017-Mar-16 23:33N 54°38' W 000°30'1111.2
2017-Mar-16 22:33N 54°31' W 000°15'1110.6
2017-Mar-16 21:33N 54°26' E 000°01'10 9.8
2017-Mar-16 20:33N 54°20' E 000°14'10 9.6
2017-Mar-16 19:33N 54°12' E 000°23'129 9.6
2017-Mar-16 06:08N 52°15' E 001°53'712.6
2017-Mar-16 05:33N 52°07' E 001°52'1313.4
2017-Mar-16 04:33N 51°54' E 001°49'1312.8
2017-Mar-16 03:33N 51°41' E 001°49'1211.9
2017-Mar-16 02:33N 51°30' E 001°54'1111.4
2017-Mar-16 01:33N 51°21' E 002°06'1110.6
2017-Mar-16 00:33N 51°12' E 001°58'1111.5
2017-Mar-15 23:33N 51°06' E 001°43'9 9.4
2017-Mar-15 22:33N 50°59' E 001°32'8 8.3
2017-Mar-15 21:33N 50°52' E 001°25'27 8.8
2017-Mar-15 18:28N 50°31' E 000°59'3210.0
2017-Mar-15 15:13N 50°23' E 000°10'5511.7
2017-Mar-15 10:32N 50°08' W 001°13'1414.3
2017-Mar-15 09:33N 50°04' W 001°34'4213.1
2017-Mar-15 06:21N 49°53' W 002°37'3110.1
2017-Mar-15 03:20N 49°40' W 003°20'19 9.1
2017-Mar-15 01:12N 49°30' W 003°46'  

Dump ship's entire track history